createdAt,value
2018-06-12T07:45:05.164Z,17.06
2018-06-12T07:50:04.247Z,17.24
2018-06-12T07:55:04.255Z,17.21
2018-06-12T08:00:04.265Z,17.01
2018-06-12T08:05:04.251Z,16.81
2018-06-12T08:10:04.262Z,16.82
2018-06-12T08:15:04.265Z,17.08
2018-06-12T08:20:04.263Z,16.99
2018-06-12T08:25:04.262Z,16.99
2018-06-12T08:30:04.425Z,17.02
2018-06-12T08:35:04.268Z,17.36
2018-06-12T08:40:04.278Z,17.16
2018-06-12T08:45:04.286Z,16.81
2018-06-12T08:50:04.289Z,16.79
2018-06-12T08:55:04.283Z,16.69
2018-06-12T09:00:04.286Z,16.91
2018-06-12T09:05:04.293Z,17.25
2018-06-12T09:10:04.283Z,17.78
2018-06-12T09:15:04.284Z,18.11
2018-06-12T09:20:04.308Z,18.58
2018-06-12T09:25:04.333Z,18.5
2018-06-12T09:30:04.297Z,17.98
2018-06-12T09:35:04.313Z,17.55
2018-06-12T09:40:04.306Z,17.84
2018-06-12T09:45:04.306Z,18.2
2018-06-12T09:50:04.328Z,19.1
2018-06-12T09:55:04.313Z,20.1
2018-06-12T10:00:04.309Z,19.81
2018-06-12T10:05:04.330Z,19.02
2018-06-12T10:10:04.317Z,18.43
2018-06-12T10:15:04.327Z,18.02
2018-06-12T10:20:04.340Z,18.03
2018-06-12T10:25:04.369Z,18.11
2018-06-12T10:30:04.326Z,18.63
2018-06-12T10:35:04.335Z,18.82
2018-06-12T10:40:04.333Z,19.25
2018-06-12T10:45:04.348Z,19.95
2018-06-12T10:50:04.412Z,20.07
2018-06-12T10:55:04.353Z,19.02
2018-06-12T11:00:04.350Z,18.68
2018-06-12T11:05:04.365Z,18.76
2018-06-12T11:10:04.362Z,18.78
2018-06-12T11:15:04.354Z,19.01
2018-06-12T11:20:04.372Z,19.47
2018-06-12T11:25:04.372Z,19.55
2018-06-12T11:30:04.363Z,19.47
2018-06-12T11:35:04.378Z,19.14
2018-06-12T11:40:04.380Z,18.97
2018-06-12T11:45:04.385Z,19.33
2018-06-12T11:50:04.391Z,19.96
2018-06-12T11:55:04.380Z,20
2018-06-12T12:00:04.388Z,19.56
2018-06-12T12:05:04.396Z,19.8
2018-06-12T12:10:04.397Z,19.56
2018-06-12T12:15:04.389Z,19.17
2018-06-12T12:20:03.380Z,18.47
2018-06-12T12:25:03.398Z,18.83
2018-06-12T12:30:03.391Z,19.35
2018-06-12T12:35:03.400Z,19.81
2018-06-12T12:40:03.408Z,20.43
2018-06-12T12:45:03.397Z,20.76
2018-06-12T12:50:03.411Z,21.04
2018-06-12T12:55:03.432Z,21.54
2018-06-12T13:00:03.404Z,21.14
2018-06-12T13:05:03.409Z,21.14
2018-06-12T13:10:03.412Z,20.68
2018-06-12T13:15:03.438Z,20.96
2018-06-12T13:20:03.418Z,21.95
2018-06-12T13:25:03.490Z,22.67
2018-06-12T13:30:03.438Z,22.43
2018-06-12T13:35:03.426Z,22.5
2018-06-12T13:40:03.430Z,22.65
2018-06-12T13:45:03.448Z,21.97
2018-06-12T13:50:03.436Z,21.45
2018-06-12T13:55:03.442Z,21.93
2018-06-12T14:00:03.441Z,23
2018-06-12T14:05:03.461Z,23.76
2018-06-12T14:10:03.444Z,22.21
2018-06-12T14:15:03.455Z,21.54
2018-06-12T14:20:03.462Z,22.06
2018-06-12T14:25:03.454Z,21.88
2018-06-12T14:30:03.458Z,21.19
2018-06-12T14:35:03.472Z,20.62
2018-06-12T14:40:03.461Z,20.49
2018-06-12T14:45:03.472Z,21.43
2018-06-12T14:50:03.488Z,22.06
2018-06-12T14:55:03.467Z,21.32
2018-06-12T15:00:03.481Z,20.48
2018-06-12T15:05:03.487Z,19.69
2018-06-12T15:10:03.490Z,19.39
2018-06-12T15:15:03.484Z,19.53
2018-06-12T15:20:03.547Z,19.39
2018-06-12T15:25:03.491Z,19.56
2018-06-12T15:30:03.487Z,20.4
2018-06-12T15:35:03.526Z,20.41
2018-06-12T15:40:03.494Z,20.13
2018-06-12T15:45:03.672Z,19.65
2018-06-12T15:50:03.513Z,19.25
2018-06-12T15:55:03.515Z,18.99
2018-06-12T16:00:03.514Z,18.78
2018-06-12T16:05:03.532Z,18.68
2018-06-12T16:10:03.518Z,18.48
2018-06-12T16:15:03.521Z,18.5
2018-06-12T16:20:03.525Z,18.61
2018-06-12T16:25:03.524Z,18.98
2018-06-12T16:30:03.593Z,18.99
2018-06-12T16:35:03.539Z,18.88
2018-06-12T16:40:03.532Z,18.76
2018-06-12T16:45:03.542Z,18.46
2018-06-12T16:50:03.548Z,17.98
2018-06-12T16:55:03.541Z,17.8
2018-06-12T17:00:03.543Z,18.1
2018-06-12T17:05:03.542Z,18.48
2018-06-12T17:10:03.557Z,18.48
2018-06-12T17:15:03.550Z,18.07
2018-06-12T17:20:03.562Z,17.92
2018-06-12T17:25:03.564Z,17.56
2018-06-12T17:30:03.559Z,17.31
2018-06-12T17:35:03.559Z,17.44
2018-06-12T17:40:03.571Z,17.61
2018-06-12T17:45:03.562Z,17.49
2018-06-12T17:50:03.570Z,17.38
2018-06-12T17:55:03.598Z,17.14
2018-06-12T18:00:03.573Z,16.94
2018-06-12T18:05:03.579Z,16.81
2018-06-12T18:10:03.595Z,16.64
2018-06-12T18:15:03.589Z,16.59
2018-06-12T18:20:03.586Z,16.6
2018-06-12T18:25:03.664Z,16.71
2018-06-12T18:30:03.615Z,16.87
2018-06-12T18:35:03.623Z,16.9
2018-06-12T18:40:03.596Z,16.81
2018-06-12T18:45:03.612Z,16.62
2018-06-12T18:50:03.604Z,16.48
2018-06-12T18:55:03.604Z,16.31
2018-06-12T19:00:03.630Z,16.18
2018-06-12T19:05:03.607Z,16.1
2018-06-12T19:10:03.614Z,16.02
2018-06-12T19:15:03.627Z,15.92
2018-06-12T19:20:03.615Z,15.84
2018-06-12T19:25:03.645Z,15.68
2018-06-12T19:30:03.632Z,15.57
2018-06-12T19:35:03.629Z,15.44
2018-06-12T19:40:03.625Z,15.3
2018-06-12T19:45:03.650Z,15.21
2018-06-12T19:50:03.633Z,15.12
2018-06-12T19:55:03.691Z,15.06
2018-06-12T20:00:03.658Z,14.99
2018-06-12T20:05:03.653Z,14.94
2018-06-12T20:10:03.647Z,14.92
2018-06-12T20:15:03.660Z,14.88
2018-06-12T20:20:03.647Z,14.85
2018-06-12T20:25:03.650Z,14.79
2018-06-12T20:30:03.656Z,14.71
2018-06-12T20:35:03.679Z,14.67
2018-06-12T20:40:03.795Z,14.63
2018-06-12T20:45:03.674Z,14.57
2018-06-12T20:50:03.673Z,14.52
2018-06-12T20:55:03.665Z,14.48
2018-06-12T21:00:03.680Z,14.42
2018-06-12T21:05:03.674Z,14.39
2018-06-12T21:10:03.676Z,14.35
2018-06-12T21:15:03.692Z,14.32
2018-06-12T21:20:03.684Z,14.3
2018-06-12T21:25:03.682Z,14.26
2018-06-12T21:30:03.691Z,14.24
2018-06-12T21:35:03.688Z,14.22
2018-06-12T21:40:03.696Z,14.18
2018-06-12T21:45:03.700Z,14.15
2018-06-12T21:50:03.696Z,14.15
2018-06-12T21:55:03.701Z,14.13
2018-06-12T22:00:03.714Z,14.1
2018-06-12T22:05:03.712Z,14.08
2018-06-12T22:10:03.708Z,14.06
2018-06-12T22:15:03.719Z,14.03
2018-06-12T22:20:03.725Z,13.99
2018-06-12T22:25:03.715Z,13.96
2018-06-12T22:30:03.716Z,13.92
2018-06-12T22:35:03.735Z,13.88
2018-06-12T22:40:03.727Z,13.84
2018-06-12T22:45:03.725Z,13.82
2018-06-12T22:50:03.727Z,13.83
2018-06-12T22:55:03.736Z,13.82
2018-06-12T23:00:03.740Z,13.81
2018-06-12T23:05:03.746Z,13.78
2018-06-12T23:10:03.742Z,13.75
2018-06-12T23:15:03.745Z,13.7
2018-06-12T23:20:03.750Z,13.69
2018-06-12T23:25:03.747Z,13.62
2018-06-12T23:30:03.751Z,13.58
2018-06-12T23:35:03.762Z,13.53
2018-06-12T23:40:03.763Z,13.48
2018-06-12T23:45:03.760Z,13.45
2018-06-12T23:50:03.811Z,13.4
2018-06-12T23:55:03.763Z,13.37
